Time;durP1;ratioP1;P1;durP2;ratioP2;P2;SDS_P1;SDS_P2;PMS_P1;PMS_P2;Temp;Humidity;BMP_temperature;BMP_pressure;BME280_temperature;BME280_humidity;BME280_pressure;Samples;Min_cycle;Max_cycle;Signal;HPM_P1;HPM_P2
2024/01/25 00:01:22;;;;;;;35.05;5.30;;;;;;;8.75;100.00;102722.72;5015531;28;20510;-82
2024/01/25 00:03:50;;;;;;;34.47;6.55;;;;;;;8.68;100.00;102707.44;5013741;28;20040;-83
2024/01/25 00:06:34;;;;;;;37.90;5.28;;;;;;;8.73;100.00;102723.47;5014436;28;20025;-83
2024/01/25 00:09:00;;;;;;;31.92;5.38;;;;;;;8.70;100.00;102723.34;5013838;28;20078;-83
2024/01/25 00:11:26;;;;;;;30.63;5.03;;;;;;;8.50;100.00;102689.00;5013496;28;20034;-83
2024/01/25 00:13:51;;;;;;;30.63;5.40;;;;;;;8.34;100.00;102659.16;5013460;28;20540;-82
2024/01/25 00:16:17;;;;;;;32.67;5.00;;;;;;;8.61;100.00;102715.88;5013983;28;20026;-82
2024/01/25 00:18:48;;;;;;;37.35;5.18;;;;;;;8.56;100.00;102729.66;5013832;28;20034;-83
2024/01/25 00:25:00;;;;;;;32.97;6.28;;;;;;;8.48;100.00;102719.66;5013697;28;20444;-83
2024/01/25 00:31:01;;;;;;;28.50;4.88;;;;;;;8.37;100.00;102712.03;5013392;28;20095;-83
2024/01/25 00:33:26;;;;;;;31.85;5.28;;;;;;;8.35;100.00;102703.09;5013664;28;20116;-82
2024/01/25 00:35:52;;;;;;;32.45;5.75;;;;;;;8.41;100.00;102724.53;5014117;28;20481;-83
2024/01/25 00:38:18;;;;;;;39.10;7.35;;;;;;;8.26;100.00;102695.66;5013521;28;20030;-82
2024/01/25 00:40:43;;;;;;;32.80;5.82;;;;;;;8.36;100.00;102726.00;5013820;28;20473;-82
2024/01/25 00:43:14;;;;;;;34.22;5.85;;;;;;;8.34;100.00;102725.91;4996596;28;20085;-83
2024/01/25 00:45:39;;;;;;;34.60;5.47;;;;;;;8.29;100.00;102727.41;5009894;28;20065;-83
2024/01/25 00:48:05;;;;;;;32.03;5.88;;;;;;;8.05;100.00;102690.25;5013545;28;20034;-83
2024/01/25 00:50:31;;;;;;;30.77;5.53;;;;;;;8.25;100.00;102736.88;5013063;28;20429;-83
2024/01/25 00:52:56;;;;;;;29.48;5.90;;;;;;;8.19;100.00;102726.06;5013478;28;20022;-83
2024/01/25 00:55:22;;;;;;;35.67;6.03;;;;;;;8.17;100.00;102724.16;5012836;28;20041;-83
2024/01/25 00:57:48;;;;;;;31.90;5.75;;;;;;;8.21;100.00;102740.19;5012679;28;20096;-83
2024/01/25 01:00:14;;;;;;;31.38;5.38;;;;;;;8.20;100.00;102735.75;5013125;28;20075;-83
2024/01/25 01:02:43;;;;;;;38.65;5.90;;;;;;;7.95;100.00;102696.75;5013066;28;20112;-83
2024/01/25 01:05:10;;;;;;;29.33;4.63;;;;;;;8.16;100.00;102741.69;5013211;28;20049;-83
2024/01/25 01:07:36;;;;;;;27.23;4.82;;;;;;;8.08;100.00;102737.75;5016291;28;20041;-83
2024/01/25 01:10:01;;;;;;;36.50;5.60;;;;;;;8.08;100.00;102737.75;5016589;28;20034;-83
2024/01/25 01:12:27;;;;;;;25.05;4.95;;;;;;;8.01;100.00;102738.28;5016592;28;20036;-83
2024/01/25 01:14:52;;;;;;;32.78;6.05;;;;;;;8.00;100.00;102742.63;5016717;28;20025;-82
2024/01/25 01:17:18;;;;;;;37.75;5.50;;;;;;;7.87;100.00;102715.59;5017076;28;20030;-83
2024/01/25 01:23:05;;;;;;;29.20;5.10;;;;;;;8.01;100.00;102746.19;5016567;28;20045;-84
2024/01/25 01:26:08;;;;;;;30.63;5.50;;;;;;;8.04;100.00;102754.22;5016417;28;20034;-83
2024/01/25 01:28:34;;;;;;;29.88;5.00;;;;;;;8.01;100.00;102751.47;5016287;28;20528;-83
2024/01/25 01:30:59;;;;;;;37.58;6.25;;;;;;;7.91;100.00;102738.63;5016272;28;20030;-83
2024/01/25 01:33:24;;;;;;;37.30;4.97;;;;;;;7.98;100.00;102768.00;5016083;28;20530;-83
2024/01/25 01:35:50;;;;;;;27.85;4.82;;;;;;;7.84;100.00;102747.06;5016156;28;20455;-83
2024/01/25 01:38:15;;;;;;;30.77;5.07;;;;;;;7.79;100.00;102746.78;5016155;28;20042;-83
2024/01/25 01:40:41;;;;;;;33.33;5.85;;;;;;;7.77;100.00;102746.72;5016484;28;20410;-83
2024/01/25 01:46:39;;;;;;;35.08;5.28;;;;;;;7.74;100.00;102746.53;4996483;28;20065;-83
2024/01/25 01:49:07;;;;;;;31.83;5.57;;;;;;;7.81;100.00;102767.94;4997111;28;20037;-83
2024/01/25 01:51:33;;;;;;;31.65;4.97;;;;;;;7.77;100.00;102772.13;4996354;28;20037;-83
2024/01/25 01:54:00;;;;;;;33.55;5.55;;;;;;;7.64;100.00;102760.03;4996591;28;20040;-83
2024/01/25 02:00:25;;;;;;;24.92;5.00;;;;;;;7.80;100.00;102785.44;4996005;28;20093;-83
2024/01/25 02:02:50;;;;;;;36.25;5.70;;;;;;;7.63;100.00;102758.25;4995794;28;20092;-83
2024/01/25 02:05:15;;;;;;;32.20;5.35;;;;;;;7.71;100.00;102769.19;4996255;28;20136;-83
2024/01/25 02:07:42;;;;;;;38.40;5.82;;;;;;;7.51;100.00;102761.09;4996309;28;20455;-83
2024/01/25 02:10:08;;;;;;;35.15;5.85;;;;;;;7.49;100.00;102775.00;4996114;28;20034;-83
2024/01/25 02:12:34;;;;;;;35.47;6.10;;;;;;;7.61;100.00;102806.31;4996042;28;20029;-83
2024/01/25 02:14:59;;;;;;;35.97;5.25;;;;;;;7.50;100.00;102790.88;4995859;28;20039;-83
2024/01/25 02:17:25;;;;;;;36.90;5.53;;;;;;;7.52;100.00;102798.84;4994827;28;20490;-83
2024/01/25 02:19:50;;;;;;;24.45;4.95;;;;;;;7.61;100.00;102807.22;4995942;28;20481;-83
2024/01/25 02:22:18;;;;;;;30.17;5.15;;;;;;;7.46;100.00;102788.00;4995680;28;20448;-83
2024/01/25 02:24:44;;;;;;;29.83;5.25;;;;;;;7.57;100.00;102820.13;4995693;28;20022;-83
2024/01/25 02:27:09;;;;;;;32.05;5.15;;;;;;;7.41;100.00;102803.53;4994529;28;20038;-83
2024/01/25 02:29:34;;;;;;;32.28;5.15;;;;;;;7.41;100.00;102806.16;4995716;28;20070;-83
2024/01/25 02:32:00;;;;;;;24.38;5.60;;;;;;;7.36;100.00;102804.97;4995920;28;20038;-82
2024/01/25 02:34:25;;;;;;;32.65;5.78;;;;;;;7.43;100.00;102819.38;4995511;28;20027;-83
2024/01/25 02:36:51;;;;;;;37.15;6.03;;;;;;;7.32;100.00;102808.25;4994280;28;20034;-83
2024/01/25 02:39:16;;;;;;;33.75;5.47;;;;;;;7.21;100.00;102799.78;4995728;28;20116;-83
2024/01/25 02:41:42;;;;;;;37.42;5.80;;;;;;;7.27;100.00;102817.63;4995493;28;20387;-83
2024/01/25 02:44:08;;;;;;;22.52;5.38;;;;;;;7.21;100.00;102814.66;4996179;28;20027;-82
2024/01/25 02:46:33;;;;;;;33.85;6.00;;;;;;;7.27;100.00;102817.63;5014968;28;20030;-83
2024/01/25 02:48:58;;;;;;;35.40;5.43;;;;;;;7.23;100.00;102813.91;5014793;28;20041;-83
2024/01/25 02:51:24;;;;;;;28.25;5.53;;;;;;;7.22;100.00;102817.38;5015011;28;20087;-83
2024/01/25 02:53:49;;;;;;;32.15;5.60;;;;;;;7.20;100.00;102808.50;5015075;28;20454;-82
2024/01/25 02:56:15;;;;;;;33.45;5.57;;;;;;;7.04;100.00;102771.66;5014680;28;20367;-83
2024/01/25 02:58:40;;;;;;;33.28;5.50;;;;;;;7.19;100.00;102819.81;5014661;28;20044;-82
2024/01/25 03:01:05;;;;;;;41.25;6.55;;;;;;;7.10;100.00;102811.41;5014555;28;20065;-83
2024/01/25 03:03:31;;;;;;;35.00;5.03;;;;;;;7.12;100.00;102819.41;5014261;28;20391;-84
2024/01/25 03:05:56;;;;;;;34.47;6.35;;;;;;;6.77;100.00;102771.00;4997605;28;20144;-83
2024/01/25 03:08:22;;;;;;;30.67;5.03;;;;;;;7.04;100.00;102818.97;5015012;28;20034;-83
2024/01/25 03:14:09;;;;;;;36.13;5.53;;;;;;;6.93;100.00;102799.03;5014475;28;20481;-84
2024/01/25 03:16:34;;;;;;;24.38;4.85;;;;;;;7.03;100.00;102814.53;5014425;28;20034;-84
2024/01/25 03:19:00;;;;;;;36.35;6.78;;;;;;;7.00;100.00;102811.72;5014582;28;20041;-83
2024/01/25 03:21:26;;;;;;;39.58;6.38;;;;;;;6.87;100.00;102796.06;4996866;28;20026;-83
2024/01/25 03:23:52;;;;;;;30.58;5.50;;;;;;;6.76;100.00;102785.84;5014139;28;20052;-84
2024/01/25 03:26:17;;;;;;;31.27;5.57;;;;;;;6.84;100.00;102803.78;5013858;28;20463;-84
2024/01/25 03:28:43;;;;;;;32.38;5.20;;;;;;;6.73;100.00;102798.81;5013745;28;20034;-84
2024/01/25 03:31:08;;;;;;;41.92;6.20;;;;;;;6.81;100.00;102815.03;5014107;28;20045;-83
2024/01/25 03:33:33;;;;;;;28.58;4.78;;;;;;;6.76;100.00;102819.09;5014211;28;20061;-83
2024/01/25 03:36:06;;;;;;;31.65;5.30;;;;;;;6.55;100.00;102788.94;5014085;28;20386;-83
2024/01/25 03:38:31;;;;;;;;;;;;;;;6.83;100.00;102825.63;5014459;28;20034;-83
2024/01/25 03:40:58;;;;;;;35.60;5.13;;;;;;;6.69;100.00;102823.09;5014374;28;19967;-84
2024/01/25 03:43:25;;;;;;;30.55;4.72;;;;;;;6.63;100.00;102811.31;5013785;28;20041;-83
2024/01/25 03:45:50;;;;;;;31.23;5.20;;;;;;;6.72;100.00;102835.50;5013718;28;20440;-86
2024/01/25 03:48:15;;;;;;;26.52;4.80;;;;;;;6.69;100.00;102841.50;5013737;28;20050;-84
2024/01/25 03:50:41;;;;;;;35.55;5.40;;;;;;;6.56;100.00;102828.47;5013958;28;20510;-83
2024/01/25 03:53:06;;;;;;;35.17;5.90;;;;;;;6.52;100.00;102821.22;5013637;28;20088;-83
2024/01/25 03:55:32;;;;;;;29.08;6.25;;;;;;;6.48;100.00;102807.00;5013461;28;20128;-83
2024/01/25 03:57:58;;;;;;;31.45;5.43;;;;;;;6.57;100.00;102830.25;5013743;28;20037;-83
2024/01/25 04:00:23;;;;;;;32.38;5.18;;;;;;;6.44;100.00;102804.09;5013531;28;20034;-83
2024/01/25 04:02:48;;;;;;;24.13;4.45;;;;;;;6.53;100.00;102826.53;4996594;28;20038;-83
2024/01/25 04:05:14;;;;;;;32.72;5.00;;;;;;;6.30;100.00;102792.78;5013741;28;20080;-83
2024/01/25 04:07:40;;;;;;;25.15;5.45;;;;;;;6.48;100.00;102821.84;5014117;28;20034;-83
2024/01/25 04:10:05;;;;;;;23.67;5.20;;;;;;;6.53;100.00;102833.53;5013553;28;20176;-83
2024/01/25 04:12:32;;;;;;;25.45;4.93;;;;;;;6.53;100.00;102846.66;5013724;28;20038;-83
2024/01/25 04:14:58;;;;;;;30.30;5.40;;;;;;;6.44;100.00;102827.72;5013931;28;20071;-83
2024/01/25 04:17:23;;;;;;;31.17;5.03;;;;;;;6.49;100.00;102839.41;4995942;28;20038;-83
2024/01/25 04:19:49;;;;;;;27.90;5.55;;;;;;;6.54;100.00;102837.94;5013670;28;20038;-83
2024/01/25 04:22:14;;;;;;;28.08;5.05;;;;;;;6.42;100.00;102824.09;5013448;28;20441;-83
2024/01/25 04:24:40;;;;;;;27.23;5.40;;;;;;;6.48;100.00;102849.00;5013601;28;20042;-83
2024/01/25 04:27:05;;;;;;;30.30;4.88;;;;;;;6.46;100.00;102848.00;5013733;28;20030;-83
2024/01/25 04:29:41;;;;;;;35.50;4.90;;;;;;;6.40;100.00;102838.88;5013714;28;20037;-84
2024/01/25 04:32:07;;;;;;;29.60;4.82;;;;;;;6.33;100.00;102840.19;5013538;28;20037;-83
2024/01/25 04:34:32;;;;;;;49.63;6.88;;;;;;;6.36;100.00;102840.41;5013724;28;20046;-83
2024/01/25 04:36:58;;;;;;;31.58;5.28;;;;;;;6.35;100.00;102832.44;5013748;28;20034;-83
2024/01/25 04:39:23;;;;;;;31.60;5.30;;;;;;;6.33;100.00;102834.03;5013944;28;20044;-82
2024/01/25 04:42:00;;;;;;;29.10;5.07;;;;;;;6.27;100.00;102838.13;5015823;28;20038;-82
2024/01/25 04:55:31;;;;;;;28.17;4.82;;;;;;;6.20;100.00;102838.56;5016105;28;20045;-83
2024/01/25 04:58:36;;;;;;;29.83;5.13;;;;;;;6.19;100.00;102839.38;5017341;28;20033;-83
2024/01/25 05:01:02;;;;;;;27.83;4.68;;;;;;;5.89;100.00;102791.16;5017480;28;20059;-83
2024/01/25 05:03:27;;;;;;;30.67;5.15;;;;;;;6.14;100.00;102840.81;5017319;28;20026;-82
2024/01/25 05:05:52;;;;;;;36.95;5.38;;;;;;;6.12;100.00;102841.53;4999199;28;20057;-83
2024/01/25 05:08:18;;;;;;;30.23;4.75;;;;;;;6.03;100.00;102826.13;5016977;28;20030;-82
2024/01/25 05:10:43;;;;;;;32.00;5.30;;;;;;;6.00;100.00;102813.75;5016973;28;20037;-82
2024/01/25 05:16:35;;;;;;;27.40;5.38;;;;;;;6.16;100.00;102825.16;5016422;28;20057;-82
2024/01/25 05:19:01;;;;;;;31.52;5.35;;;;;;;6.04;100.00;102806.97;5017141;28;20129;-83
2024/01/25 05:21:26;;;;;;;29.00;5.07;;;;;;;6.09;100.00;102815.13;4999153;28;20069;-83
2024/01/25 05:27:21;;;;;;;27.23;4.95;;;;;;;5.99;100.00;102805.75;5015413;28;20034;-82
2024/01/25 05:33:20;;;;;;;24.60;4.95;;;;;;;6.07;100.00;102821.97;5016400;28;20068;-82
2024/01/25 05:35:46;;;;;;;27.50;4.90;;;;;;;5.98;100.00;102804.84;5016739;28;20030;-83
2024/01/25 05:38:11;;;;;;;34.20;5.45;;;;;;;5.99;100.00;102819.78;5016471;28;20037;-82
2024/01/25 05:40:36;;;;;;;37.60;6.32;;;;;;;5.95;100.00;102812.56;5016291;28;20083;-83
2024/01/25 05:43:03;;;;;;;37.00;6.05;;;;;;;5.92;100.00;102807.13;5015958;28;20030;-83
2024/01/25 05:45:28;;;;;;;31.63;5.85;;;;;;;5.94;100.00;102820.31;5016271;28;20058;-83
2024/01/25 05:47:53;;;;;;;30.17;5.40;;;;;;;5.97;100.00;102838.88;5015817;28;20022;-83
2024/01/25 05:50:19;;;;;;;31.60;5.43;;;;;;;5.96;100.00;102842.34;5015824;28;20508;-83
2024/01/25 05:52:44;;;;;;;31.58;6.00;;;;;;;5.94;100.00;102839.59;4998219;28;20042;-83
2024/01/25 05:55:10;;;;;;;25.98;4.97;;;;;;;5.90;100.00;102841.91;5015380;28;20030;-83
2024/01/25 05:57:36;;;;;;;36.88;5.95;;;;;;;5.87;100.00;102854.84;5015679;28;20065;-83
2024/01/25 06:00:02;;;;;;;31.65;5.90;;;;;;;5.72;100.00;102839.94;5015730;28;20160;-83
2024/01/25 06:02:28;;;;;;;32.85;6.28;;;;;;;5.80;100.00;102864.03;5015770;28;20030;-83
2024/01/25 06:04:53;;;;;;;32.60;5.10;;;;;;;5.67;100.00;102833.53;5015605;28;20038;-83
2024/01/25 06:07:20;;;;;;;32.60;6.30;;;;;;;5.73;100.00;102840.84;5015656;28;20038;-83
2024/01/25 06:09:45;;;;;;;33.25;6.00;;;;;;;5.73;100.00;102846.09;5016308;28;20092;-82
2024/01/25 06:12:10;;;;;;;28.05;5.25;;;;;;;5.78;100.00;102844.66;5015798;28;20414;-83
2024/01/25 06:14:36;;;;;;;31.45;5.72;;;;;;;5.74;100.00;102847.94;5015770;28;20033;-82
2024/01/25 06:17:02;;;;;;;29.20;5.40;;;;;;;5.65;100.00;102826.34;5015379;28;20034;-83
2024/01/25 06:19:27;;;;;;;39.85;5.68;;;;;;;5.70;100.00;102852.09;5015281;28;20064;-83
2024/01/25 06:21:53;;;;;;;30.52;5.80;;;;;;;5.65;100.00;102849.97;5015452;28;20080;-83
2024/01/25 06:24:18;;;;;;;35.03;5.88;;;;;;;5.50;100.00;102824.59;5015322;28;20382;-83
2024/01/25 06:26:44;;;;;;;29.23;5.38;;;;;;;5.52;100.00;102828.22;5015152;28;20048;-83
2024/01/25 06:29:09;;;;;;;30.98;5.45;;;;;;;5.59;100.00;102844.34;5014816;28;20061;-82
2024/01/25 06:31:43;;;;;;;26.42;5.47;;;;;;;5.53;100.00;102845.78;5015100;28;20458;-83
2024/01/25 06:34:09;;;;;;;25.85;5.70;;;;;;;5.49;100.00;102859.50;5015197;28;20087;-83
2024/01/25 06:36:34;;;;;;;24.90;5.22;;;;;;;5.42;100.00;102878.25;5014973;28;20492;-83
2024/01/25 06:38:59;;;;;;;34.13;5.80;;;;;;;5.37;100.00;102878.78;5014999;28;20601;-83
2024/01/25 06:41:25;;;;;;;31.55;5.55;;;;;;;5.26;100.00;102880.69;5014911;28;20030;-83
2024/01/25 06:43:50;;;;;;;29.73;5.38;;;;;;;5.26;100.00;102891.16;5014780;28;20533;-83
2024/01/25 06:46:15;;;;;;;27.23;5.28;;;;;;;5.09;100.00;102855.09;4996656;28;20053;-83
2024/01/25 06:48:41;;;;;;;26.90;4.97;;;;;;;5.21;100.00;102879.50;5014835;28;20030;-83
2024/01/25 06:51:06;;;;;;;37.05;6.03;;;;;;;5.21;100.00;102879.50;5014647;28;20459;-83
2024/01/25 06:53:32;;;;;;;28.55;5.45;;;;;;;5.16;100.00;102866.09;5014339;28;20359;-82
2024/01/25 06:55:57;;;;;;;25.83;5.35;;;;;;;5.13;100.00;102864.97;5014526;28;20030;-82
2024/01/25 06:58:23;;;;;;;27.02;7.10;;;;;;;5.18;100.00;102861.88;5014487;28;20065;-82
2024/01/25 07:00:49;;;;;;;27.08;7.43;;;;;;;5.21;100.00;102855.91;5014396;28;20453;-82
2024/01/25 07:03:15;;;;;;;36.10;9.93;;;;;;;5.17;100.00;102848.66;5013614;28;20523;-82
2024/01/25 07:05:41;;;;;;;27.13;5.70;;;;;;;5.18;100.00;102863.56;5014050;28;20053;-83
2024/01/25 07:08:08;;;;;;;28.88;5.97;;;;;;;5.19;100.00;102876.78;5014224;28;20530;-83
2024/01/25 07:10:34;;;;;;;27.52;5.25;;;;;;;5.09;100.00;102871.72;5014076;28;20034;-82
2024/01/25 07:13:00;;;;;;;30.77;5.57;;;;;;;5.08;100.00;102872.53;5013964;28;20045;-82
2024/01/25 07:15:25;;;;;;;31.85;6.03;;;;;;;4.97;100.00;102856.13;5013883;28;20046;-82
2024/01/25 07:17:51;;;;;;;26.40;5.45;;;;;;;5.04;100.00;102865.28;5013763;28;20533;-83
2024/01/25 07:20:16;;;;;;;29.67;5.95;;;;;;;5.06;100.00;102862.78;5013709;28;20030;-83
2024/01/25 07:22:42;;;;;;;35.20;5.95;;;;;;;4.98;100.00;102844.84;5013773;28;20045;-82
2024/01/25 07:25:07;;;;;;;24.25;5.10;;;;;;;5.10;100.00;102867.41;5013614;28;20390;-82
2024/01/25 07:27:33;;;;;;;34.47;6.00;;;;;;;5.03;100.00;102856.53;5013597;28;20033;-82
2024/01/25 07:29:58;;;;;;;20.08;5.57;;;;;;;5.12;100.00;102871.03;5013487;28;20088;-82
2024/01/25 07:32:24;;;;;;;32.58;6.22;;;;;;;5.19;100.00;102887.25;5013255;28;20494;-81
2024/01/25 07:34:50;;;;;;;31.38;5.78;;;;;;;5.21;100.00;102895.22;5013563;28;20374;-84
2024/01/25 07:37:16;;;;;;;28.17;6.68;;;;;;;5.18;100.00;102898.56;5013524;28;20038;-85
2024/01/25 07:39:41;;;;;;;31.00;5.68;;;;;;;5.23;100.00;102897.13;4995891;28;20033;-85
2024/01/25 07:42:07;;;;;;;25.65;5.78;;;;;;;5.26;100.00;102886.84;5013408;28;20026;-84
2024/01/25 07:44:32;;;;;;;28.55;6.05;;;;;;;5.25;100.00;102873.63;5013299;28;20139;-85
2024/01/25 07:46:58;;;;;;;26.33;6.30;;;;;;;5.26;100.00;102872.81;5013518;28;20033;-84
2024/01/25 07:49:23;;;;;;;26.60;5.80;;;;;;;5.31;100.00;102873.13;5013335;28;20069;-84
2024/01/25 07:51:48;;;;;;;29.60;6.20;;;;;;;5.43;100.00;102898.41;5013163;28;20466;-84
2024/01/25 07:54:14;;;;;;;34.38;6.55;;;;;;;5.42;100.00;102879.97;5013397;28;20034;-84
2024/01/25 07:56:40;;;;;;;31.40;5.70;;;;;;;5.47;100.00;102878.53;5013392;28;20038;-86
2024/01/25 07:59:05;;;;;;;35.40;6.35;;;;;;;5.49;100.00;102869.09;5013321;28;20064;-85
2024/01/25 08:01:30;;;;;;;29.95;6.45;;;;;;;5.44;100.00;102858.31;5012806;28;20096;-85
2024/01/25 08:03:56;;;;;;;32.50;6.63;;;;;;;5.60;100.00;102890.72;5013179;28;20070;-85
2024/01/25 08:06:22;;;;;;;34.97;6.68;;;;;;;5.60;100.00;102904.75;5013096;28;20455;-85
2024/01/25 08:08:47;;;;;;;25.67;5.53;;;;;;;5.59;100.00;102902.94;5012966;28;20069;-85
2024/01/25 08:11:13;;;;;;;22.35;5.80;;;;;;;5.63;100.00;102910.19;5013174;28;20061;-85
2024/01/25 08:13:38;;;;;;;36.95;6.90;;;;;;;5.60;100.00;102898.59;4995469;28;20030;-85
2024/01/25 08:16:04;;;;;;;30.98;6.28;;;;;;;5.56;100.00;102892.25;5014287;28;20033;-86
2024/01/25 08:18:29;;;;;;;31.42;7.40;;;;;;;5.50;100.00;102894.47;4999773;28;20425;-86
2024/01/25 08:20:56;;;;;;;39.08;8.30;;;;;;;5.47;100.00;102891.66;5017163;28;20029;-86
2024/01/25 08:23:21;;;;;;;34.67;6.40;;;;;;;5.28;100.00;102866.88;5016767;28;20066;-85
2024/01/25 08:25:46;;;;;;;29.00;7.10;;;;;;;5.44;100.00;102895.00;5017176;28;20393;-85
2024/01/25 08:28:12;;;;;;;36.40;6.18;;;;;;;5.45;100.00;102896.81;4999109;28;20037;-86
2024/01/25 08:30:37;;;;;;;27.13;6.68;;;;;;;5.52;100.00;102901.66;5016848;28;20463;-85
2024/01/25 08:33:03;;;;;;;30.60;7.00;;;;;;;5.47;100.00;102883.78;5016880;28;20030;-86
2024/01/25 08:35:30;;;;;;;33.13;6.78;;;;;;;5.55;100.00;102873.81;5016827;28;20033;-86
2024/01/25 08:37:55;;;;;;;35.80;7.32;;;;;;;5.53;100.00;102856.25;5016476;28;20368;-85
2024/01/25 08:40:21;;;;;;;35.40;7.53;;;;;;;5.66;100.00;102862.28;5016755;28;20041;-85
2024/01/25 08:42:47;;;;;;;26.05;6.72;;;;;;;5.35;100.00;102800.00;5016774;28;20099;-85
2024/01/25 08:45:12;;;;;;;36.20;7.30;;;;;;;5.71;100.00;102861.75;4995513;28;20050;-85
2024/01/25 08:47:37;;;;;;;33.72;7.50;;;;;;;5.82;100.00;102879.88;4996837;28;20054;-85
2024/01/25 08:50:05;;;;;;;30.30;6.35;;;;;;;5.79;100.00;102859.63;4996860;28;20467;-86
2024/01/25 08:52:30;;;;;;;31.58;7.65;;;;;;;5.91;100.00;102885.69;4996824;28;20042;-86
2024/01/25 08:54:56;;;;;;;29.95;7.88;;;;;;;5.99;100.00;102892.34;4996629;28;20395;-85
2024/01/25 08:57:21;;;;;;;41.45;7.05;;;;;;;6.04;100.00;102901.44;4996859;28;20479;-85
2024/01/25 08:59:47;;;;;;;34.75;7.28;;;;;;;6.05;100.00;102894.47;4996993;28;20125;-90
2024/01/25 09:02:12;;;;;;;33.13;7.28;;;;;;;5.81;100.00;102864.94;4996854;28;20189;-88
2024/01/25 09:04:37;;;;;;;37.95;7.90;;;;;;;5.88;100.00;102875.94;4995382;28;20123;-88
2024/01/25 09:07:03;;;;;;;28.85;7.68;;;;;;;6.06;100.00;102915.56;4996298;28;20034;-87
2024/01/25 09:09:28;;;;;;;30.50;6.93;;;;;;;6.00;100.00;102899.44;4980781;28;20030;-87
2024/01/25 09:11:54;;;;;;;37.97;7.88;;;;;;;5.97;100.00;102889.66;4997834;28;20044;-88
2024/01/25 09:14:19;;;;;;;36.03;8.25;;;;;;;6.14;100.00;102908.16;4996574;28;20046;-84
2024/01/25 09:16:45;;;;;;;29.23;8.13;;;;;;;6.17;100.00;102900.50;4996503;28;20475;-85
2024/01/25 09:19:10;;;;;;;28.83;8.52;;;;;;;6.29;100.00;102919.59;4996407;28;20042;-85
2024/01/25 09:21:39;;;;;;;30.70;8.50;;;;;;;6.35;100.00;102904.22;4996235;28;20056;-85
2024/01/25 09:24:04;;;;;;;38.40;8.68;;;;;;;6.20;100.00;102856.03;4996247;28;20070;-86
2024/01/25 09:26:30;;;;;;;31.73;9.25;;;;;;;6.58;100.00;102904.72;4994514;28;20066;-85
2024/01/25 09:28:55;;;;;;;37.05;10.27;;;;;;;6.75;100.00;102902.25;4996131;28;20027;-84
2024/01/25 09:31:20;;;;;;;31.27;8.63;;;;;;;6.72;100.00;102893.28;4995129;28;20348;-84
2024/01/25 09:33:46;;;;;;;33.38;9.23;;;;;;;6.75;100.00;102886.50;4995831;28;20074;-85
2024/01/25 09:36:11;;;;;;;34.25;8.82;;;;;;;6.97;100.00;102914.94;4996186;28;20027;-84
2024/01/25 09:38:37;;;;;;;34.85;9.32;;;;;;;6.92;100.00;102870.81;4994609;28;20107;-84
2024/01/25 09:41:02;;;;;;;32.67;8.77;;;;;;;7.24;100.00;102891.09;4996094;28;20463;-84
2024/01/25 09:43:27;;;;;;;31.45;8.32;;;;;;;7.34;100.00;102898.66;4996014;28;20084;-84
2024/01/25 09:45:56;;;;;;;30.17;8.40;;;;;;;7.32;100.00;102878.34;5009035;28;20177;-85
2024/01/25 09:48:22;;;;;;;27.48;8.35;;;;;;;7.25;100.00;102859.63;5015454;28;20077;-84
2024/01/25 09:50:48;;;;;;;30.83;8.35;;;;;;;7.60;100.00;102904.50;5015342;28;20115;-84
2024/01/25 09:53:24;;;;;;;32.78;9.20;;;;;;;7.60;100.00;102897.50;5015203;28;20056;-84
2024/01/25 09:56:06;;;;;;;28.75;8.93;;;;;;;7.74;100.00;102903.53;5015283;28;20029;-85
2024/01/25 09:58:45;;;;;;;24.58;8.98;;;;;;;7.85;100.00;102901.50;5015318;28;20113;-84
2024/01/25 10:01:12;;;;;;;28.08;9.00;;;;;;;7.90;100.00;102900.03;5015239;28;20117;-84
2024/01/25 10:03:40;;;;;;;30.67;9.88;;;;;;;7.76;100.00;102872.97;5014967;28;20045;-84
2024/01/25 10:06:06;;;;;;;32.00;10.35;;;;;;;7.74;100.00;102878.13;5015017;28;20378;-85
2024/01/25 10:08:31;;;;;;;31.35;10.13;;;;;;;7.77;100.00;102883.56;5015012;28;20069;-84
2024/01/25 10:10:57;;;;;;;30.60;9.38;;;;;;;7.77;100.00;102866.84;5014998;28;20123;-84
2024/01/25 10:13:22;;;;;;;31.65;11.38;;;;;;;7.95;100.00;102888.00;5015000;28;20042;-85
2024/01/25 10:15:48;;;;;;;31.88;10.13;;;;;;;8.03;100.00;102887.59;4997280;28;20474;-85
2024/01/25 10:18:16;;;;;;;25.73;9.38;;;;;;;8.07;100.00;102874.59;5014823;28;20494;-84
2024/01/25 10:20:42;;;;;;;31.52;10.45;;;;;;;8.02;100.00;102861.19;5014727;28;20124;-85
2024/01/25 10:23:08;;;;;;;29.40;9.70;;;;;;;8.08;100.00;102855.34;5014512;28;20114;-84
2024/01/25 10:25:35;;;;;;;32.20;10.32;;;;;;;8.12;100.00;102878.38;5014959;28;20069;-84
2024/01/25 10:28:05;;;;;;;37.22;9.65;;;;;;;7.98;100.00;102859.22;5014220;28;20030;-84
2024/01/25 10:30:35;;;;;;;37.25;10.45;;;;;;;8.02;100.00;102870.00;5014386;28;20058;-84
2024/01/25 10:33:02;;;;;;;34.58;10.45;;;;;;;8.03;100.00;102863.91;4996783;28;20044;-84
2024/01/25 10:35:30;;;;;;;37.92;10.85;;;;;;;8.13;100.00;102856.50;5014569;28;20475;-83
2024/01/25 10:37:55;;;;;;;40.58;11.48;;;;;;;8.09;100.00;102850.16;5014104;28;20030;-84
2024/01/25 10:40:21;;;;;;;40.63;11.23;;;;;;;8.06;100.00;102852.66;5014028;28;20427;-84
2024/01/25 10:42:47;;;;;;;37.38;10.38;;;;;;;8.09;100.00;102854.50;4996647;28;20030;-84
2024/01/25 10:45:13;;;;;;;38.20;10.88;;;;;;;8.02;100.00;102826.97;5014229;28;20054;-84
2024/01/25 10:47:40;;;;;;;38.05;10.57;;;;;;;8.21;100.00;102848.16;5014080;28;20029;-84
2024/01/25 10:50:11;;;;;;;34.70;11.65;;;;;;;8.22;100.00;102854.34;5014123;28;20117;-85
2024/01/25 10:52:38;;;;;;;38.92;11.30;;;;;;;8.27;100.00;102853.78;5014143;28;20069;-84
2024/01/25 10:55:05;;;;;;;36.38;10.70;;;;;;;8.29;100.00;102844.22;5014132;28;20136;-85
2024/01/25 10:57:43;;;;;;;38.10;10.70;;;;;;;8.33;100.00;102845.28;5014313;28;20117;-84
2024/01/25 11:00:10;;;;;;;42.53;10.95;;;;;;;8.32;100.00;102834.66;5014114;28;20030;-84
2024/01/25 11:02:36;;;;;;;37.05;11.00;;;;;;;8.36;100.00;102834.00;5014165;28;20112;-84
2024/01/25 11:05:05;;;;;;;44.92;11.90;;;;;;;8.38;100.00;102830.63;5013987;28;20120;-84
2024/01/25 11:07:44;;;;;;;42.08;11.18;;;;;;;8.43;100.00;102836.16;5014019;28;20038;-84
2024/01/25 11:10:24;;;;;;;40.13;10.82;;;;;;;8.48;100.00;102834.69;5013560;28;20064;-84
2024/01/25 11:13:00;;;;;;;35.42;9.85;;;;;;;8.44;100.00;102816.91;5013973;28;20057;-86
2024/01/25 11:15:34;;;;;;;36.95;10.15;;;;;;;8.48;100.00;102810.97;5013834;28;20125;-85
2024/01/25 11:18:01;;;;;;;42.70;10.55;;;;;;;8.63;100.00;102810.81;5013960;28;20042;-84
2024/01/25 11:20:28;;;;;;;39.13;10.02;;;;;;;8.55;100.00;102799.00;5014025;28;20032;-85
2024/01/25 11:23:01;;;;;;;35.20;9.57;;;;;;;8.53;100.00;102801.56;5013541;28;20037;-86
2024/01/25 11:25:35;;;;;;;42.33;11.80;;;;;;;8.38;100.00;102761.25;5013298;28;20402;-86
2024/01/25 11:28:02;;;;;;;44.30;11.25;;;;;;;8.56;100.00;102806.06;4996089;28;20026;-85
2024/01/25 11:30:30;;;;;;;52.90;12.90;;;;;;;8.50;100.00;102804.94;5013382;28;20092;-87
2024/01/25 11:32:55;;;;;;;45.78;9.77;;;;;;;8.51;100.00;102788.28;5013599;28;20022;-85
2024/01/25 11:35:21;;;;;;;43.65;9.82;;;;;;;8.47;100.00;102769.63;5013653;28;20041;-89
2024/01/25 11:37:48;;;;;;;32.40;8.95;;;;;;;8.39;100.00;102776.22;5013454;28;20133;-89
2024/01/25 11:40:15;;;;;;;33.80;9.75;;;;;;;8.36;100.00;102771.69;5013508;28;20117;-85
2024/01/25 11:42:48;;;;;;;42.28;11.63;;;;;;;8.40;100.00;102776.31;4995734;28;20038;-85
2024/01/25 11:45:14;;;;;;;38.10;10.98;;;;;;;8.34;100.00;102762.78;5013322;28;20054;-86
2024/01/25 11:47:41;;;;;;;46.58;13.40;;;;;;;8.46;100.00;102776.63;5013352;28;20041;-84
2024/01/25 11:50:08;;;;;;;39.95;12.23;;;;;;;8.42;100.00;102768.47;4997399;28;20029;-87
2024/01/25 11:52:34;;;;;;;45.05;12.38;;;;;;;8.37;100.00;102768.25;5013740;28;20033;-86
2024/01/25 11:55:05;;;;;;;42.75;11.98;;;;;;;8.38;100.00;102780.59;4979732;28;20030;-86
2024/01/25 11:57:34;;;;;;;48.22;13.90;;;;;;;8.28;100.00;102765.13;4995775;28;20037;-86